<?xml version="1.0" encoding="UTF-8" standalone="no" ?>
<gpx xmlns="http://www.topografix.com/GPX/1/1" xmlns:xsi="http://www.w3.org/2001/XMLSchema-instance" xsi:schemaLocation="http://www.topografix.com/GPX/1/1 http://www.topografix.com/GPX/1/1/gpx.xsd" version="1.1" creator="VisuGPX - https://www.visugpx.com">
  <metadata>
    <name>Wikiloc - Boucle Pla del mir Refuge Bernardi lac d Aude</name>
  </metadata>
  <trk>
    <name><![CDATA[Boucle Pla del mir Refuge Bernardi lac d Aude]]></name>
    <trkseg>
      <trkpt lat="42.56422" lon="2.06798">
        <ele>1809.889</ele>
        <time>2019-12-30T10:05:35Z</time>
      </trkpt>
      <trkpt lat="42.56416" lon="2.06706">
        <ele>1809.806</ele>
        <time>2019-12-30T10:07:06Z</time>
      </trkpt>
      <trkpt lat="42.56442" lon="2.06634">
        <ele>1811.026</ele>
        <time>2019-12-30T10:08:01Z</time>
      </trkpt>
      <trkpt lat="42.56433" lon="2.06573">
        <ele>1812.908</ele>
        <time>2019-12-30T10:13:10Z</time>
      </trkpt>
      <trkpt lat="42.56381" lon="2.06506">
        <ele>1806.052</ele>
        <time>2019-12-30T10:14:52Z</time>
      </trkpt>
      <trkpt lat="42.56327" lon="2.06478">
        <ele>1807.052</ele>
        <time>2019-12-30T10:15:48Z</time>
      </trkpt>
      <trkpt lat="42.56271" lon="2.06384">
        <ele>1815.617</ele>
        <time>2019-12-30T10:17:40Z</time>
      </trkpt>
      <trkpt lat="42.56235" lon="2.0642">
        <ele>1817.172</ele>
        <time>2019-12-30T10:18:56Z</time>
      </trkpt>
      <trkpt lat="42.56213" lon="2.06424">
        <ele>1815.425</ele>
        <time>2019-12-30T10:19:22Z</time>
      </trkpt>
      <trkpt lat="42.56167" lon="2.06395">
        <ele>1827.442</ele>
        <time>2019-12-30T10:20:14Z</time>
      </trkpt>
      <trkpt lat="42.56134" lon="2.0635">
        <ele>1828.863</ele>
        <time>2019-12-30T10:20:59Z</time>
      </trkpt>
      <trkpt lat="42.56041" lon="2.06391">
        <ele>1837.984</ele>
        <time>2019-12-30T10:23:13Z</time>
      </trkpt>
      <trkpt lat="42.55977" lon="2.0647">
        <ele>1839.216</ele>
        <time>2019-12-30T10:24:27Z</time>
      </trkpt>
      <trkpt lat="42.55807" lon="2.06547">
        <ele>1848.076</ele>
        <time>2019-12-30T10:27:33Z</time>
      </trkpt>
      <trkpt lat="42.55772" lon="2.06487">
        <ele>1843.413</ele>
        <time>2019-12-30T10:28:25Z</time>
      </trkpt>
      <trkpt lat="42.55725" lon="2.06468">
        <ele>1843.208</ele>
        <time>2019-12-30T10:29:14Z</time>
      </trkpt>
      <trkpt lat="42.55603" lon="2.06486">
        <ele>1854.985</ele>
        <time>2019-12-30T10:31:29Z</time>
      </trkpt>
      <trkpt lat="42.55597" lon="2.06477">
        <ele>1857.275</ele>
        <time>2019-12-30T10:31:41Z</time>
      </trkpt>
      <trkpt lat="42.5561" lon="2.06408">
        <ele>1865.82</ele>
        <time>2019-12-30T10:32:41Z</time>
      </trkpt>
      <trkpt lat="42.55603" lon="2.06336">
        <ele>1866.215</ele>
        <time>2019-12-30T10:33:36Z</time>
      </trkpt>
      <trkpt lat="42.55572" lon="2.06287">
        <ele>1874.738</ele>
        <time>2019-12-30T10:34:22Z</time>
      </trkpt>
      <trkpt lat="42.55559" lon="2.06218">
        <ele>1875.725</ele>
        <time>2019-12-30T10:35:13Z</time>
      </trkpt>
      <trkpt lat="42.55513" lon="2.06161">
        <ele>1879.546</ele>
        <time>2019-12-30T10:37:41Z</time>
      </trkpt>
      <trkpt lat="42.55507" lon="2.06114">
        <ele>1875.517</ele>
        <time>2019-12-30T10:38:09Z</time>
      </trkpt>
      <trkpt lat="42.55508" lon="2.06042">
        <ele>1876.221</ele>
        <time>2019-12-30T10:39:15Z</time>
      </trkpt>
      <trkpt lat="42.55535" lon="2.06007">
        <ele>1879.441</ele>
        <time>2019-12-30T10:41:03Z</time>
      </trkpt>
      <trkpt lat="42.55538" lon="2.05955">
        <ele>1878.705</ele>
        <time>2019-12-30T10:44:13Z</time>
      </trkpt>
      <trkpt lat="42.5556" lon="2.05964">
        <ele>1880.308</ele>
        <time>2019-12-30T10:46:15Z</time>
      </trkpt>
      <trkpt lat="42.55542" lon="2.05964">
        <ele>1882.886</ele>
        <time>2019-12-30T10:47:52Z</time>
      </trkpt>
      <trkpt lat="42.55513" lon="2.05915">
        <ele>1876.116</ele>
        <time>2019-12-30T10:48:52Z</time>
      </trkpt>
      <trkpt lat="42.55642" lon="2.05643">
        <ele>1872.171</ele>
        <time>2019-12-30T10:53:06Z</time>
      </trkpt>
      <trkpt lat="42.55708" lon="2.05569">
        <ele>1883.676</ele>
        <time>2019-12-30T10:54:48Z</time>
      </trkpt>
      <trkpt lat="42.55853" lon="2.05501">
        <ele>1914.349</ele>
        <time>2019-12-30T10:58:20Z</time>
      </trkpt>
      <trkpt lat="42.559" lon="2.05457">
        <ele>1920.066</ele>
        <time>2019-12-30T10:59:29Z</time>
      </trkpt>
      <trkpt lat="42.55927" lon="2.05274">
        <ele>1921.697</ele>
        <time>2019-12-30T11:04:36Z</time>
      </trkpt>
      <trkpt lat="42.55874" lon="2.05118">
        <ele>1920.928</ele>
        <time>2019-12-30T11:06:44Z</time>
      </trkpt>
      <trkpt lat="42.55824" lon="2.05126">
        <ele>1921.724</ele>
        <time>2019-12-30T11:07:37Z</time>
      </trkpt>
      <trkpt lat="42.55755" lon="2.05048">
        <ele>1918.904</ele>
        <time>2019-12-30T11:09:18Z</time>
      </trkpt>
      <trkpt lat="42.5569" lon="2.05056">
        <ele>1929.714</ele>
        <time>2019-12-30T11:10:38Z</time>
      </trkpt>
      <trkpt lat="42.55705" lon="2.04966">
        <ele>1937.208</ele>
        <time>2019-12-30T11:11:49Z</time>
      </trkpt>
      <trkpt lat="42.5566" lon="2.04959">
        <ele>1932.996</ele>
        <time>2019-12-30T11:12:33Z</time>
      </trkpt>
      <trkpt lat="42.55617" lon="2.04995">
        <ele>1929.016</ele>
        <time>2019-12-30T11:13:23Z</time>
      </trkpt>
      <trkpt lat="42.55561" lon="2.04979">
        <ele>1932.241</ele>
        <time>2019-12-30T11:14:16Z</time>
      </trkpt>
      <trkpt lat="42.55545" lon="2.04955">
        <ele>1934.646</ele>
        <time>2019-12-30T11:14:37Z</time>
      </trkpt>
      <trkpt lat="42.55534" lon="2.04635">
        <ele>1932.429</ele>
        <time>2019-12-30T11:19:37Z</time>
      </trkpt>
      <trkpt lat="42.5561" lon="2.04405">
        <ele>1948.836</ele>
        <time>2019-12-30T11:23:16Z</time>
      </trkpt>
      <trkpt lat="42.55599" lon="2.04249">
        <ele>1952.757</ele>
        <time>2019-12-30T11:25:25Z</time>
      </trkpt>
      <trkpt lat="42.55569" lon="2.04177">
        <ele>1957.078</ele>
        <time>2019-12-30T11:26:32Z</time>
      </trkpt>
      <trkpt lat="42.55597" lon="2.04102">
        <ele>1969.844</ele>
        <time>2019-12-30T11:27:42Z</time>
      </trkpt>
      <trkpt lat="42.55666" lon="2.04016">
        <ele>1983.605</ele>
        <time>2019-12-30T11:29:44Z</time>
      </trkpt>
      <trkpt lat="42.55671" lon="2.03979">
        <ele>1990.715</ele>
        <time>2019-12-30T11:32:17Z</time>
      </trkpt>
      <trkpt lat="42.55705" lon="2.03922">
        <ele>1992.308</ele>
        <time>2019-12-30T11:33:31Z</time>
      </trkpt>
      <trkpt lat="42.5572" lon="2.03907">
        <ele>1995.338</ele>
        <time>2019-12-30T11:33:50Z</time>
      </trkpt>
      <trkpt lat="42.55757" lon="2.03911">
        <ele>1996.248</ele>
        <time>2019-12-30T11:34:33Z</time>
      </trkpt>
      <trkpt lat="42.55747" lon="2.03853">
        <ele>1994.663</ele>
        <time>2019-12-30T11:35:35Z</time>
      </trkpt>
      <trkpt lat="42.5568" lon="2.03884">
        <ele>1994.348</ele>
        <time>2019-12-30T11:37:00Z</time>
      </trkpt>
      <trkpt lat="42.55654" lon="2.0388">
        <ele>1992.771</ele>
        <time>2019-12-30T11:37:22Z</time>
      </trkpt>
      <trkpt lat="42.55745" lon="2.03671">
        <ele>1990.548</ele>
        <time>2019-12-30T11:40:57Z</time>
      </trkpt>
      <trkpt lat="42.55862" lon="2.03628">
        <ele>2001.459</ele>
        <time>2019-12-30T11:43:38Z</time>
      </trkpt>
      <trkpt lat="42.55952" lon="2.03544">
        <ele>2011.47</ele>
        <time>2019-12-30T11:46:53Z</time>
      </trkpt>
      <trkpt lat="42.55996" lon="2.03536">
        <ele>2017.184</ele>
        <time>2019-12-30T11:48:26Z</time>
      </trkpt>
      <trkpt lat="42.56063" lon="2.03406">
        <ele>2024.307</ele>
        <time>2019-12-30T11:50:46Z</time>
      </trkpt>
      <trkpt lat="42.5609" lon="2.03382">
        <ele>2029.117</ele>
        <time>2019-12-30T11:51:52Z</time>
      </trkpt>
      <trkpt lat="42.56111" lon="2.03429">
        <ele>2036.608</ele>
        <time>2019-12-30T11:53:49Z</time>
      </trkpt>
      <trkpt lat="42.56162" lon="2.03422">
        <ele>2062.652</ele>
        <time>2019-12-30T11:55:56Z</time>
      </trkpt>
      <trkpt lat="42.56182" lon="2.0344">
        <ele>2063.642</ele>
        <time>2019-12-30T11:56:35Z</time>
      </trkpt>
      <trkpt lat="42.56252" lon="2.03449">
        <ele>2070.697</ele>
        <time>2019-12-30T11:58:22Z</time>
      </trkpt>
      <trkpt lat="42.56318" lon="2.03314">
        <ele>2099.582</ele>
        <time>2019-12-30T12:01:33Z</time>
      </trkpt>
      <trkpt lat="42.56414" lon="2.03263">
        <ele>2109.525</ele>
        <time>2019-12-30T12:03:53Z</time>
      </trkpt>
      <trkpt lat="42.5643" lon="2.0324">
        <ele>2105.092</ele>
        <time>2019-12-30T12:04:17Z</time>
      </trkpt>
      <trkpt lat="42.56464" lon="2.03105">
        <ele>2117.643</ele>
        <time>2019-12-30T12:06:13Z</time>
      </trkpt>
      <trkpt lat="42.56534" lon="2.02982">
        <ele>2119.964</ele>
        <time>2019-12-30T12:08:32Z</time>
      </trkpt>
      <trkpt lat="42.5663" lon="2.02866">
        <ele>2133.093</ele>
        <time>2019-12-30T12:10:54Z</time>
      </trkpt>
      <trkpt lat="42.56668" lon="2.02789">
        <ele>2141.265</ele>
        <time>2019-12-30T12:12:06Z</time>
      </trkpt>
      <trkpt lat="42.5677" lon="2.02701">
        <ele>2143.321</ele>
        <time>2019-12-30T12:14:10Z</time>
      </trkpt>
      <trkpt lat="42.56803" lon="2.02591">
        <ele>2149.508</ele>
        <time>2019-12-30T12:16:54Z</time>
      </trkpt>
      <trkpt lat="42.56833" lon="2.0256">
        <ele>2157.593</ele>
        <time>2019-12-30T12:17:42Z</time>
      </trkpt>
      <trkpt lat="42.56887" lon="2.0242">
        <ele>2145.243</ele>
        <time>2019-12-30T12:20:24Z</time>
      </trkpt>
      <trkpt lat="42.56964" lon="2.02343">
        <ele>2147.138</ele>
        <time>2019-12-30T12:22:11Z</time>
      </trkpt>
      <trkpt lat="42.56991" lon="2.02331">
        <ele>2149.043</ele>
        <time>2019-12-30T12:25:46Z</time>
      </trkpt>
      <trkpt lat="42.57003" lon="2.02338">
        <ele>2145.196</ele>
        <time>2019-12-30T12:55:19Z</time>
      </trkpt>
      <trkpt lat="42.57004" lon="2.02323">
        <ele>2134.093</ele>
        <time>2019-12-30T12:59:51Z</time>
      </trkpt>
      <trkpt lat="42.57097" lon="2.02371">
        <ele>2145.714</ele>
        <time>2019-12-30T13:06:45Z</time>
      </trkpt>
      <trkpt lat="42.57114" lon="2.0243">
        <ele>2146.355</ele>
        <time>2019-12-30T13:07:52Z</time>
      </trkpt>
      <trkpt lat="42.5709" lon="2.02512">
        <ele>2154.178</ele>
        <time>2019-12-30T13:09:25Z</time>
      </trkpt>
      <trkpt lat="42.57096" lon="2.02549">
        <ele>2152.433</ele>
        <time>2019-12-30T13:09:55Z</time>
      </trkpt>
      <trkpt lat="42.57068" lon="2.02567">
        <ele>2150.226</ele>
        <time>2019-12-30T13:10:50Z</time>
      </trkpt>
      <trkpt lat="42.57055" lon="2.02618">
        <ele>2147.008</ele>
        <time>2019-12-30T13:11:46Z</time>
      </trkpt>
      <trkpt lat="42.5712" lon="2.02861">
        <ele>2148.651</ele>
        <time>2019-12-30T13:16:13Z</time>
      </trkpt>
      <trkpt lat="42.57116" lon="2.02899">
        <ele>2150.731</ele>
        <time>2019-12-30T13:16:59Z</time>
      </trkpt>
      <trkpt lat="42.57081" lon="2.02956">
        <ele>2154.466</ele>
        <time>2019-12-30T13:18:16Z</time>
      </trkpt>
      <trkpt lat="42.56989" lon="2.03019">
        <ele>2149.291</ele>
        <time>2019-12-30T13:20:26Z</time>
      </trkpt>
      <trkpt lat="42.56932" lon="2.03087">
        <ele>2139.724</ele>
        <time>2019-12-30T13:21:58Z</time>
      </trkpt>
      <trkpt lat="42.56726" lon="2.03214">
        <ele>2125.331</ele>
        <time>2019-12-30T13:26:22Z</time>
      </trkpt>
      <trkpt lat="42.56687" lon="2.03243">
        <ele>2121.772</ele>
        <time>2019-12-30T13:27:04Z</time>
      </trkpt>
      <trkpt lat="42.56672" lon="2.03275">
        <ele>2118.853</ele>
        <time>2019-12-30T13:27:34Z</time>
      </trkpt>
      <trkpt lat="42.56659" lon="2.03267">
        <ele>2115.819</ele>
        <time>2019-12-30T13:27:58Z</time>
      </trkpt>
      <trkpt lat="42.56651" lon="2.03293">
        <ele>2112.909</ele>
        <time>2019-12-30T13:31:17Z</time>
      </trkpt>
      <trkpt lat="42.56595" lon="2.03328">
        <ele>2106.719</ele>
        <time>2019-12-30T13:32:15Z</time>
      </trkpt>
      <trkpt lat="42.56561" lon="2.03482">
        <ele>2092.608</ele>
        <time>2019-12-30T13:34:16Z</time>
      </trkpt>
      <trkpt lat="42.56491" lon="2.03619">
        <ele>2080.635</ele>
        <time>2019-12-30T13:38:34Z</time>
      </trkpt>
      <trkpt lat="42.56488" lon="2.03698">
        <ele>2074.875</ele>
        <time>2019-12-30T13:39:41Z</time>
      </trkpt>
      <trkpt lat="42.56472" lon="2.03741">
        <ele>2070.73</ele>
        <time>2019-12-30T13:40:24Z</time>
      </trkpt>
      <trkpt lat="42.56437" lon="2.03772">
        <ele>2066.755</ele>
        <time>2019-12-30T13:41:24Z</time>
      </trkpt>
      <trkpt lat="42.56273" lon="2.03725">
        <ele>2061.248</ele>
        <time>2019-12-30T13:45:04Z</time>
      </trkpt>
      <trkpt lat="42.56231" lon="2.03731">
        <ele>2059.835</ele>
        <time>2019-12-30T13:45:51Z</time>
      </trkpt>
      <trkpt lat="42.5621" lon="2.03803">
        <ele>2059.496</ele>
        <time>2019-12-30T13:46:55Z</time>
      </trkpt>
      <trkpt lat="42.56196" lon="2.03944">
        <ele>2057.567</ele>
        <time>2019-12-30T13:48:32Z</time>
      </trkpt>
      <trkpt lat="42.56204" lon="2.03989">
        <ele>2054.974</ele>
        <time>2019-12-30T13:49:08Z</time>
      </trkpt>
      <trkpt lat="42.56147" lon="2.04083">
        <ele>2044.956</ele>
        <time>2019-12-30T13:51:10Z</time>
      </trkpt>
      <trkpt lat="42.56165" lon="2.04136">
        <ele>2035.821</ele>
        <time>2019-12-30T13:52:04Z</time>
      </trkpt>
      <trkpt lat="42.56151" lon="2.04264">
        <ele>2012.508</ele>
        <time>2019-12-30T13:53:47Z</time>
      </trkpt>
      <trkpt lat="42.56167" lon="2.04295">
        <ele>2006.911</ele>
        <time>2019-12-30T13:54:20Z</time>
      </trkpt>
      <trkpt lat="42.562" lon="2.04285">
        <ele>2005.211</ele>
        <time>2019-12-30T13:55:02Z</time>
      </trkpt>
      <trkpt lat="42.56229" lon="2.04308">
        <ele>2004.686</ele>
        <time>2019-12-30T13:55:37Z</time>
      </trkpt>
      <trkpt lat="42.56323" lon="2.04325">
        <ele>2007.451</ele>
        <time>2019-12-30T13:57:21Z</time>
      </trkpt>
      <trkpt lat="42.56362" lon="2.04385">
        <ele>2010.244</ele>
        <time>2019-12-30T13:58:30Z</time>
      </trkpt>
      <trkpt lat="42.56306" lon="2.04511">
        <ele>2011.951</ele>
        <time>2019-12-30T14:00:55Z</time>
      </trkpt>
      <trkpt lat="42.56245" lon="2.04577">
        <ele>2013.262</ele>
        <time>2019-12-30T14:02:09Z</time>
      </trkpt>
      <trkpt lat="42.56184" lon="2.04689">
        <ele>2003.313</ele>
        <time>2019-12-30T14:03:56Z</time>
      </trkpt>
      <trkpt lat="42.56117" lon="2.05076">
        <ele>1946.082</ele>
        <time>2019-12-30T14:09:25Z</time>
      </trkpt>
      <trkpt lat="42.56108" lon="2.05245">
        <ele>1930.843</ele>
        <time>2019-12-30T14:11:31Z</time>
      </trkpt>
      <trkpt lat="42.56052" lon="2.05358">
        <ele>1949.117</ele>
        <time>2019-12-30T14:13:24Z</time>
      </trkpt>
      <trkpt lat="42.5601" lon="2.05405">
        <ele>1933.508</ele>
        <time>2019-12-30T14:14:18Z</time>
      </trkpt>
      <trkpt lat="42.55946" lon="2.05415">
        <ele>1916.052</ele>
        <time>2019-12-30T14:16:05Z</time>
      </trkpt>
      <trkpt lat="42.55874" lon="2.05486">
        <ele>1907.162</ele>
        <time>2019-12-30T14:18:25Z</time>
      </trkpt>
      <trkpt lat="42.55738" lon="2.05558">
        <ele>1888.937</ele>
        <time>2019-12-30T14:20:45Z</time>
      </trkpt>
      <trkpt lat="42.55644" lon="2.05649">
        <ele>1872.362</ele>
        <time>2019-12-30T14:22:43Z</time>
      </trkpt>
      <trkpt lat="42.55519" lon="2.05911">
        <ele>1871.285</ele>
        <time>2019-12-30T14:27:00Z</time>
      </trkpt>
      <trkpt lat="42.55516" lon="2.06137">
        <ele>1867.532</ele>
        <time>2019-12-30T14:29:50Z</time>
      </trkpt>
      <trkpt lat="42.55599" lon="2.06308">
        <ele>1860.173</ele>
        <time>2019-12-30T14:34:57Z</time>
      </trkpt>
      <trkpt lat="42.55611" lon="2.06357">
        <ele>1860.814</ele>
        <time>2019-12-30T14:35:38Z</time>
      </trkpt>
      <trkpt lat="42.55605" lon="2.0647">
        <ele>1855.351</ele>
        <time>2019-12-30T14:37:07Z</time>
      </trkpt>
      <trkpt lat="42.55742" lon="2.06466">
        <ele>1838.301</ele>
        <time>2019-12-30T14:39:19Z</time>
      </trkpt>
      <trkpt lat="42.55785" lon="2.06528">
        <ele>1833.811</ele>
        <time>2019-12-30T14:40:22Z</time>
      </trkpt>
      <trkpt lat="42.55828" lon="2.06533">
        <ele>1840.708</ele>
        <time>2019-12-30T14:41:03Z</time>
      </trkpt>
      <trkpt lat="42.55865" lon="2.06501">
        <ele>1841.449</ele>
        <time>2019-12-30T14:41:48Z</time>
      </trkpt>
      <trkpt lat="42.55928" lon="2.0649">
        <ele>1836.769</ele>
        <time>2019-12-30T14:42:57Z</time>
      </trkpt>
      <trkpt lat="42.55978" lon="2.06461">
        <ele>1837.954</ele>
        <time>2019-12-30T14:43:51Z</time>
      </trkpt>
      <trkpt lat="42.56053" lon="2.0638">
        <ele>1833.239</ele>
        <time>2019-12-30T14:45:20Z</time>
      </trkpt>
      <trkpt lat="42.56112" lon="2.06345">
        <ele>1830.332</ele>
        <time>2019-12-30T14:46:26Z</time>
      </trkpt>
      <trkpt lat="42.56131" lon="2.06345">
        <ele>1825.879</ele>
        <time>2019-12-30T14:46:40Z</time>
      </trkpt>
      <trkpt lat="42.56216" lon="2.06412">
        <ele>1812.79</ele>
        <time>2019-12-30T14:48:09Z</time>
      </trkpt>
      <trkpt lat="42.56268" lon="2.06381">
        <ele>1817.081</ele>
        <time>2019-12-30T14:49:03Z</time>
      </trkpt>
      <trkpt lat="42.56301" lon="2.06416">
        <ele>1819.057</ele>
        <time>2019-12-30T14:50:06Z</time>
      </trkpt>
      <trkpt lat="42.56325" lon="2.065">
        <ele>1806.2</ele>
        <time>2019-12-30T14:51:31Z</time>
      </trkpt>
      <trkpt lat="42.56352" lon="2.06481">
        <ele>1805.52</ele>
        <time>2019-12-30T14:52:25Z</time>
      </trkpt>
      <trkpt lat="42.5637" lon="2.06489">
        <ele>1808.108</ele>
        <time>2019-12-30T14:52:59Z</time>
      </trkpt>
      <trkpt lat="42.56398" lon="2.06559">
        <ele>1803.719</ele>
        <time>2019-12-30T14:54:31Z</time>
      </trkpt>
      <trkpt lat="42.56354" lon="2.06645">
        <ele>1801.299</ele>
        <time>2019-12-30T14:55:50Z</time>
      </trkpt>
      <trkpt lat="42.56328" lon="2.06801">
        <ele>1796.824</ele>
        <time>2019-12-30T14:59:54Z</time>
      </trkpt>
      <trkpt lat="42.56373" lon="2.06857">
        <ele>1797.489</ele>
        <time>2019-12-30T15:01:02Z</time>
      </trkpt>
      <trkpt lat="42.56387" lon="2.06852">
        <ele>1797.272</ele>
        <time>2019-12-30T15:01:22Z</time>
      </trkpt>
      <trkpt lat="42.56385" lon="2.06806">
        <ele>1802.819</ele>
        <time>2019-12-30T15:02:43Z</time>
      </trkpt>
      <trkpt lat="42.56413" lon="2.06819">
        <ele>1808.29</ele>
        <time>2019-12-30T15:03:23Z</time>
      </trkpt>
      <trkpt lat="42.56428" lon="2.06799">
        <ele>1809.581</ele>
        <time>2019-12-30T15:06:48Z</time>
      </trkpt>
    </trkseg>
  </trk>
</gpx>